Aérodrome :
LOGIN :

S'inscrire | Disclaimer

   EN    FR    IT 

 










Légende :    VFR   VFR Marginal   IFR   IFR Intensif   IFR Très Intensif
Visi : 
Plafond : 
>= 8 km
>= 3000ft
5 à 8 km
1000 à 3000 ft
1500m à 5 km
500 à 1000 ft
800 à 1500m
200 à 500 ft
< 800m
< 200 ft
Symboles :   Orages  Brouillard  Fortes neiges  Fortes précipitations  Vent > 20 kt
SIGMETs :   Divers  Orages  Givrage  Turbulence  Onde Orograph.  Cendres Volcan.






- Altitude de l'aérodrome : 1299 ft


EDTY - Adolf Würth

DERNIER METAR :
  • 260450Z AUTO VRB02KT 9999 // FEW003/// 10/10 Q1018

METARs EXPIRÉS :
  • 260420Z AUTO 21002KT 9999 // FEW002/// 09/09 Q1018
  • 260350Z AUTO 00000KT 5000 1600 // NCD 08/08 Q1018
  • 260320Z AUTO 10005KT 6000 // FEW002/// 08/08 Q1018
  • 260250Z AUTO 08005KT 9999 // NCD 08/08 Q1018
  • 260220Z AUTO 00000KT 9999 // NCD 09/09 Q1018
  • 260150Z AUTO 11003KT 9999 // NCD 09/08 Q1018
  • 260120Z AUTO 00000KT 9999 // FEW094/// 10/09 Q1018
  • 260050Z AUTO 26002KT 9999 // FEW091/// 10/09 Q1018
  • 260020Z AUTO VRB02KT 9999 // FEW090/// 10/09 Q1018
  • 252350Z AUTO 07003KT 9999 // NCD 10/09 Q1018

Prévision TAF périmée.



MET'MAP, la Météo Aéronautique d'un coup d'oeil ! - Copyright ORBIFLY Décembre 2007 - Disclaimer

ORBIFLY MET'MAP TEAM :

Programmation & Développement : Alexandra Zaïnal
Sur une idée originale de : Baudouin d'Aumeries
Soutien technique & logistique : Manuel Goepfert
Assistance : Marc-Olivier Méhu




SOURCES & CREDITS :

   NOAA